Freeport, Bahamas

6:54 PM EDT on October 22, 2014 (GMT -0400)
Grand Bahama International | Change Station
CLOSE
Current Station
Airport
Location: Freeport,
Elevation: 36 ft
Nearby Weather Stations

Elev 36 ft 26.56 °N, 78.70 °W | Updated 54 minutes ago

Light Rain Showers
Light Showers Rain
81 °F
Feels Like 86 °F
N
4
Wind Variable Wind from NNE

Today
High -- | Low -- °F
--% Chance of Precip.
Yesterday
High -- | Low -- °F
Precip. -- in
7:17 AM 6:40 PM
Waning Crescent, 1% visible
Pressure 29.89 in
Visibility 6.2 miles
Clouds Few 1500 ft
Scattered Clouds 5000 ft
Mostly Cloudy 10000 ft
Heat Index 86 °F
Dew Point 75 °F
Humidity 84%
Rainfall 0.00 in
Snow Depth Not available.
UV 0 out of 12
Pollen Not available.
Air Quality Not available.
Flu Activity Not available.
METAR MYGF 222200Z 02003KT 9999 -SHRA FEW015CB SCT050 BKN100 27/24 A2989 RMK CB SW THRU W

More Conditions Fewer Conditions

Pressure 29.89 in
Visibility 6.2 miles
Clouds Few 1500 ft
Scattered Clouds 5000 ft
Mostly Cloudy 10000 ft
Heat Index 86 °F
Dew Point 75 °F
Humidity 84%
Rainfall 0.00 in
Snow Depth Not available.
UV 0 out of 12
Pollen Not available.
Air Quality Not available.
Flu Activity Not available.
METAR MYGF 222200Z 02003KT 9999 -SHRA FEW015CB SCT050 BKN100 27/24 A2989 RMK CB SW THRU W

More Conditions Fewer Conditions

10-Day Weather Forecast

Almanac

Astronomy

Oct. 22, 2014 Rise Set
Actual Time 7:17 AM EDT 6:40 PM EDT
Civil Twilight 6:54 AM EDT 7:03 PM EDT
Nautical Twilight 6:27 AM EDT 7:30 PM EDT
Astronomical Twilight 6:00 AM EDT 7:57 PM EDT
Moon 6:04 AM EDT 6:00 PM EDT
Length of Visible Light 12h 09m
Length of Day
11h 22m
Tomorrow will be 1m 27s shorter.
Waning Crescent, 1% of the Moon is Illuminated
Today
Waning Crescent
Oct 23
New
Oct 30
First Quarter
Nov 6
Full
Nov 14
Last Quarter

Today's Extremes

Country Highs Country Lows

Community

WunderPhotos

Upload Photos

1,764,065 photos uploaded!

WunderBlogs® & News

Nearby

Snow Depth

Not available.

Earthquake Activity

City Distance Mag. Time & Date
No recent earthquake activity has been reported nearby.
Minimum magnitude displayed is 2.5.

Coastal Water Temperatures

Place Temperature
No Stations Reporting

Nearby Weather Stations